Time;durP1;ratioP1;P1;durP2;ratioP2;P2;SDS_P1;SDS_P2;PMS_P1;PMS_P2;Temp;Humidity;BMP_temperature;BMP_pressure;BME280_temperature;BME280_humidity;BME280_pressure;Samples;Min_cycle;Max_cycle;Signal;HPM_P1;HPM_P2
2022/10/16 00:01:52;;;;;;;13.63;2.05;;;12.60;99.90;;;;;;5103411;28;20048;-77
2022/10/16 00:04:18;;;;;;;8.23;2.13;;;12.60;99.90;;;;;;5112013;28;20058;-76
2022/10/16 00:06:43;;;;;;;11.02;2.25;;;12.60;99.90;;;;;;5114059;28;20063;-76
2022/10/16 00:09:10;;;;;;;9.55;2.22;;;12.50;99.90;;;;;;5113941;28;20483;-76
2022/10/16 00:11:37;;;;;;;9.07;2.17;;;12.50;99.90;;;;;;5113308;28;20051;-77
2022/10/16 00:14:07;;;;;;;12.10;1.98;;;12.50;99.90;;;;;;5095937;28;20124;-76
2022/10/16 00:16:34;;;;;;;13.07;1.80;;;12.50;99.90;;;;;;5114476;28;20055;-77
2022/10/16 00:19:00;;;;;;;8.63;1.98;;;12.40;99.90;;;;;;5112539;28;20043;-77
2022/10/16 00:21:28;;;;;;;8.32;1.33;;;12.40;99.90;;;;;;5112735;28;20059;-76
2022/10/16 00:24:06;;;;;;;10.63;1.85;;;12.40;99.90;;;;;;5113699;28;20050;-76
2022/10/16 00:26:33;;;;;;;11.82;1.90;;;12.40;99.90;;;;;;5112664;28;20403;-77
2022/10/16 00:28:59;;;;;;;8.02;1.80;;;12.40;99.90;;;;;;5113521;28;20039;-76
2022/10/16 00:31:25;;;;;;;8.38;1.67;;;12.30;99.90;;;;;;5112522;28;20044;-77
2022/10/16 00:33:52;;;;;;;9.48;1.80;;;12.30;99.90;;;;;;5111963;28;20048;-80
2022/10/16 00:36:21;;;;;;;7.60;2.40;;;12.30;99.90;;;;;;5112250;28;20059;-76
2022/10/16 00:38:49;;;;;;;10.68;1.90;;;12.30;99.90;;;;;;5112641;28;20062;-77
2022/10/16 00:41:17;;;;;;;8.13;2.00;;;12.30;99.90;;;;;;5133728;27;20525;-76
2022/10/16 00:43:57;;;;;;;17.02;3.50;;;12.30;99.90;;;;;;5133553;27;20047;-78
2022/10/16 00:46:29;;;;;;;6.95;1.70;;;12.20;99.90;;;;;;5133493;27;20142;-76
2022/10/16 00:49:04;;;;;;;8.05;1.42;;;12.20;99.90;;;;;;5134135;27;20107;-78
2022/10/16 00:51:32;;;;;;;;;;;12.20;99.90;;;;;;5116112;27;20055;-80
2022/10/16 00:53:59;;;;;;;7.93;1.77;;;12.20;99.90;;;;;;5116934;27;19923;-78
2022/10/16 00:56:25;;;;;;;10.38;1.88;;;12.10;99.90;;;;;;5115017;27;20090;-76
2022/10/16 00:58:52;;;;;;;6.05;1.65;;;12.10;99.90;;;;;;5133816;27;20047;-75
2022/10/16 01:01:17;;;;;;;7.70;2.50;;;12.10;99.90;;;;;;5133667;27;20047;-77
2022/10/16 01:03:43;;;;;;;9.13;1.52;;;12.20;99.90;;;;;;5115243;27;20517;-77
2022/10/16 01:06:37;;;;;;;7.28;1.85;;;12.20;99.90;;;;;;5136058;27;20081;-80
2022/10/16 01:09:34;;;;;;;7.88;2.03;;;12.20;99.90;;;;;;5133746;27;20047;-76
2022/10/16 01:12:10;;;;;;;15.30;2.60;;;12.20;99.90;;;;;;5132112;27;20402;-77
2022/10/16 01:14:58;;;;;;;9.50;2.80;;;12.20;99.90;;;;;;5098310;27;20490;-78
2022/10/16 01:17:58;;;;;;;6.18;1.60;;;12.20;99.90;;;;;;5098211;27;20135;-80
2022/10/16 01:20:32;;;;;;;8.98;1.40;;;12.20;99.90;;;;;;5117634;27;20074;-76
2022/10/16 01:23:36;;;;;;;10.53;2.30;;;12.20;99.90;;;;;;5113848;27;20051;-76
2022/10/16 01:26:32;;;;;;;7.82;1.38;;;12.20;99.90;;;;;;5114400;27;20050;-77
2022/10/16 01:29:30;;;;;;;6.65;1.70;;;12.30;99.90;;;;;;5113392;27;20050;-77
2022/10/16 01:32:01;;;;;;;10.13;2.58;;;12.30;99.90;;;;;;5099189;27;20066;-77
2022/10/16 01:34:41;;;;;;;8.15;1.67;;;12.40;99.90;;;;;;5134251;27;20053;-77
2022/10/16 01:37:15;;;;;;;5.47;1.30;;;12.40;99.90;;;;;;5114336;27;20062;-78
2022/10/16 01:39:44;;;;;;;6.72;1.50;;;12.40;99.90;;;;;;5111127;28;20052;-77
2022/10/16 01:42:27;;;;;;;6.25;1.77;;;12.50;99.90;;;;;;5110970;28;20083;-78
2022/10/16 01:44:55;;;;;;;8.23;1.15;;;12.50;99.90;;;;;;5112161;28;20052;-78
2022/10/16 01:47:25;;;;;;;6.82;1.60;;;12.60;99.90;;;;;;5110858;28;20510;-76
2022/10/16 01:49:53;;;;;;;4.35;1.25;;;12.60;99.90;;;;;;5116230;28;20546;-75
2022/10/16 01:52:23;;;;;;;10.02;1.30;;;12.60;99.90;;;;;;5112262;28;20082;-79
2022/10/16 01:54:53;;;;;;;7.57;1.30;;;12.70;99.90;;;;;;5112564;28;20054;-77
2022/10/16 01:57:21;;;;;;;4.57;1.27;;;12.70;99.90;;;;;;5112217;28;20047;-77
2022/10/16 01:59:52;;;;;;;5.78;1.42;;;12.70;99.90;;;;;;5112101;28;20081;-77
2022/10/16 02:02:20;;;;;;;6.65;1.33;;;12.70;99.90;;;;;;5110716;28;20050;-77
2022/10/16 02:04:57;;;;;;;5.68;1.10;;;12.80;99.90;;;;;;5110773;28;20055;-77
2022/10/16 02:07:23;;;;;;;8.55;1.90;;;12.90;99.90;;;;;;5114323;28;20063;-76
2022/10/16 02:09:50;;;;;;;8.73;1.15;;;12.90;99.90;;;;;;5110959;28;20402;-77
2022/10/16 02:12:29;;;;;;;6.18;1.20;;;12.90;99.90;;;;;;5093568;28;20043;-76
2022/10/16 02:14:55;;;;;;;9.50;2.53;;;12.90;99.90;;;;;;5110553;28;20179;-77
2022/10/16 02:17:21;;;;;;;9.82;3.45;;;12.90;99.90;;;;;;5110381;28;20069;-76
2022/10/16 02:19:50;;;;;;;8.20;1.48;;;12.90;99.90;;;;;;5110456;28;20562;-77
2022/10/16 02:22:31;;;;;;;4.55;1.10;;;12.90;99.90;;;;;;5110855;28;20047;-77
2022/10/16 02:25:30;;;;;;;6.78;1.20;;;12.80;99.90;;;;;;5110928;28;20614;-77
2022/10/16 02:28:06;;;;;;;6.97;1.40;;;12.80;99.90;;;;;;5111733;28;20078;-76
2022/10/16 02:30:44;;;;;;;6.95;1.30;;;12.80;99.90;;;;;;5110589;28;20508;-79
2022/10/16 02:33:15;;;;;;;6.03;1.50;;;12.70;99.90;;;;;;5111223;28;20047;-80
2022/10/16 02:35:42;;;;;;;6.45;1.60;;;12.70;99.90;;;;;;5110485;28;20076;-76
2022/10/16 02:38:09;;;;;;;7.13;1.70;;;12.70;99.90;;;;;;5113298;28;20056;-77
2022/10/16 02:40:36;;;;;;;7.25;1.90;;;12.70;99.90;;;;;;5122610;28;20072;-80
2022/10/16 02:43:04;;;;;;;7.50;1.58;;;12.70;99.90;;;;;;5113466;28;20051;-78
2022/10/16 02:45:30;;;;;;;6.00;1.45;;;12.60;99.90;;;;;;5112882;28;20475;-77
2022/10/16 02:47:55;;;;;;;10.75;1.77;;;12.60;99.90;;;;;;5113726;28;20053;-76
2022/10/16 02:50:22;;;;;;;9.25;3.05;;;12.60;99.90;;;;;;5097872;28;20039;-75
2022/10/16 02:52:48;;;;;;;7.70;1.88;;;12.60;99.90;;;;;;5132063;28;20123;-76
2022/10/16 02:55:14;;;;;;;9.77;2.13;;;12.60;99.90;;;;;;5113537;28;20503;-76
2022/10/16 02:57:40;;;;;;;11.82;2.60;;;12.50;99.90;;;;;;5131978;28;20395;-76
2022/10/16 03:00:11;;;;;;;9.27;1.73;;;12.50;99.90;;;;;;5113148;28;20054;-76
2022/10/16 03:02:37;;;;;;;7.78;1.77;;;12.50;99.90;;;;;;5113651;28;20039;-80
2022/10/16 03:05:03;;;;;;;7.70;2.40;;;12.50;99.90;;;;;;5131884;28;20103;-77
2022/10/16 03:07:29;;;;;;;11.88;2.15;;;12.50;99.90;;;;;;5134227;28;20131;-78
2022/10/16 03:09:55;;;;;;;7.88;2.08;;;12.50;99.90;;;;;;5132420;28;20114;-79
2022/10/16 03:12:21;;;;;;;8.15;3.15;;;12.50;99.90;;;;;;5115186;28;20570;-79
2022/10/16 03:14:47;;;;;;;10.95;2.63;;;12.40;99.90;;;;;;5131017;28;20069;-79
2022/10/16 03:17:16;;;;;;;5.75;2.08;;;12.40;99.90;;;;;;5130844;28;20054;-77
2022/10/16 03:19:43;;;;;;;6.25;2.22;;;12.40;99.90;;;;;;5114255;28;20148;-81
2022/10/16 03:22:09;;;;;;;9.82;2.00;;;12.40;99.90;;;;;;5113464;28;20130;-79
2022/10/16 03:24:35;;;;;;;6.15;1.90;;;12.40;99.90;;;;;;5113155;28;20137;-80
2022/10/16 03:27:01;;;;;;;10.07;2.00;;;12.40;99.90;;;;;;5130344;28;20134;-78
2022/10/16 03:29:29;;;;;;;9.00;2.10;;;12.40;99.90;;;;;;5131873;28;20075;-80
2022/10/16 03:31:55;;;;;;;9.00;2.30;;;12.40;99.90;;;;;;5130578;28;20566;-80
2022/10/16 03:34:21;;;;;;;7.68;2.03;;;12.30;99.90;;;;;;5097313;28;20050;-76
2022/10/16 03:36:47;;;;;;;5.75;1.80;;;12.40;99.90;;;;;;5115008;28;20055;-78
2022/10/16 03:39:13;;;;;;;5.55;1.90;;;12.40;99.90;;;;;;5131788;28;20047;-79
2022/10/16 03:41:39;;;;;;;4.68;1.60;;;12.40;99.90;;;;;;5131191;28;20054;-79
2022/10/16 03:44:05;;;;;;;8.13;2.33;;;12.40;99.90;;;;;;5131773;28;20122;-78
2022/10/16 03:46:31;;;;;;;9.05;3.05;;;12.30;99.90;;;;;;5098092;27;20506;-77
2022/10/16 03:48:57;;;;;;;7.60;1.60;;;12.30;99.90;;;;;;5103385;27;20531;-79
2022/10/16 03:51:23;;;;;;;5.75;1.63;;;12.30;99.90;;;;;;5135600;27;20046;-79
2022/10/16 03:53:49;;;;;;;8.30;2.00;;;12.40;99.90;;;;;;5116389;27;20509;-80
2022/10/16 03:56:15;;;;;;;6.93;1.50;;;12.40;99.90;;;;;;5116408;27;20050;-78
2022/10/16 03:58:41;;;;;;;5.63;1.90;;;12.30;99.90;;;;;;5135104;27;20044;-78
2022/10/16 04:01:07;;;;;;;6.78;2.05;;;12.40;99.90;;;;;;5135023;27;20446;-77
2022/10/16 04:03:33;;;;;;;5.13;1.38;;;12.30;99.90;;;;;;5134860;27;20047;-77
2022/10/16 04:05:59;;;;;;;6.07;1.88;;;12.30;99.90;;;;;;5135275;27;20043;-77
2022/10/16 04:08:25;;;;;;;6.70;1.63;;;12.30;99.90;;;;;;5099108;27;20047;-78
2022/10/16 04:10:51;;;;;;;5.97;1.45;;;12.30;99.90;;;;;;5134822;27;20139;-80
2022/10/16 04:13:17;;;;;;;7.68;2.17;;;12.30;99.90;;;;;;5116314;27;20504;-77
2022/10/16 04:15:44;;;;;;;7.75;1.48;;;12.30;99.90;;;;;;5116606;27;20091;-77
2022/10/16 04:18:10;;;;;;;5.38;1.70;;;12.30;99.90;;;;;;5135213;27;20039;-79
2022/10/16 04:20:36;;;;;;;7.57;2.17;;;12.30;99.90;;;;;;5118035;27;20415;-80
2022/10/16 04:23:02;;;;;;;7.60;2.00;;;12.30;99.90;;;;;;5134141;27;20109;-77
2022/10/16 04:25:28;;;;;;;11.77;1.67;;;12.30;99.90;;;;;;5099278;27;20047;-80
2022/10/16 04:27:54;;;;;;;13.30;2.30;;;12.40;99.90;;;;;;5134496;27;20079;-79
2022/10/16 04:30:21;;;;;;;6.60;1.40;;;12.40;99.90;;;;;;5115503;27;20130;-78
2022/10/16 04:32:51;;;;;;;6.35;1.73;;;12.30;99.90;;;;;;5115909;27;20066;-75
2022/10/16 04:35:18;;;;;;;6.72;1.50;;;12.40;99.90;;;;;;5138812;27;20447;-76
2022/10/16 04:37:44;;;;;;;5.20;1.48;;;12.40;99.90;;;;;;5116218;27;20051;-77
2022/10/16 04:40:11;;;;;;;6.03;1.40;;;12.40;99.90;;;;;;5115231;27;20047;-79
2022/10/16 04:42:37;;;;;;;10.73;2.08;;;12.40;99.90;;;;;;5098492;27;20047;-77
2022/10/16 04:45:05;;;;;;;5.97;1.40;;;12.40;99.90;;;;;;5115032;27;20061;-77
2022/10/16 04:47:30;;;;;;;4.50;1.30;;;12.50;99.90;;;;;;5115186;27;20043;-77
2022/10/16 04:49:56;;;;;;;8.05;1.50;;;12.50;99.90;;;;;;5099431;27;20062;-78
2022/10/16 04:52:24;;;;;;;5.20;1.13;;;12.50;99.90;;;;;;5135753;27;20773;-80
2022/10/16 04:54:50;;;;;;;7.00;1.50;;;12.50;99.90;;;;;;5115270;27;20088;-76
2022/10/16 04:57:17;;;;;;;5.88;1.63;;;12.50;99.90;;;;;;5115863;27;20836;-77
2022/10/16 04:59:43;;;;;;;6.93;1.80;;;12.50;99.90;;;;;;5133874;27;20058;-79
2022/10/16 05:02:09;;;;;;;7.00;1.58;;;12.50;99.90;;;;;;5133370;27;20583;-76
2022/10/16 05:04:34;;;;;;;4.97;1.60;;;12.60;99.90;;;;;;5114856;27;20135;-75
2022/10/16 05:07:00;;;;;;;5.82;1.30;;;12.50;99.90;;;;;;5133484;27;20138;-77
2022/10/16 05:09:27;;;;;;;4.50;1.45;;;12.50;99.90;;;;;;5135952;27;20047;-80
2022/10/16 05:11:53;;;;;;;8.70;1.52;;;12.50;99.90;;;;;;5115167;27;20058;-79
2022/10/16 05:14:19;;;;;;;5.70;1.63;;;12.50;99.90;;;;;;5115338;27;20050;-77
2022/10/16 05:16:44;;;;;;;5.18;1.40;;;12.50;99.90;;;;;;5117453;27;20402;-79
2022/10/16 05:19:10;;;;;;;4.97;1.40;;;12.40;99.90;;;;;;5134514;27;20046;-78
2022/10/16 05:21:36;;;;;;;6.68;1.30;;;12.40;99.90;;;;;;5134080;27;20134;-78
2022/10/16 05:24:02;;;;;;;6.65;1.70;;;12.40;99.90;;;;;;5134802;27;20138;-78
2022/10/16 05:26:28;;;;;;;5.47;1.65;;;12.40;99.90;;;;;;5134355;27;20059;-76
2022/10/16 05:28:54;;;;;;;5.25;1.10;;;12.40;99.90;;;;;;5131940;27;20078;-75
2022/10/16 05:31:19;;;;;;;8.18;1.60;;;12.40;99.90;;;;;;5133252;27;20057;-77
2022/10/16 05:33:45;;;;;;;5.55;1.40;;;12.50;99.90;;;;;;5132838;27;20047;-77
2022/10/16 05:36:12;;;;;;;8.57;1.60;;;12.40;99.90;;;;;;5114326;27;20054;-76
2022/10/16 05:38:38;;;;;;;5.05;1.30;;;12.50;99.90;;;;;;5132986;27;20051;-77
2022/10/16 05:41:05;;;;;;;7.18;2.08;;;12.50;99.90;;;;;;5134537;27;20054;-75
2022/10/16 05:43:32;;;;;;;5.88;1.60;;;12.50;99.90;;;;;;5114217;27;20090;-77
2022/10/16 05:46:04;;;;;;;6.22;1.45;;;12.50;99.90;;;;;;5114694;27;20047;-78
2022/10/16 05:48:30;;;;;;;9.57;2.20;;;12.50;99.90;;;;;;5114791;27;20133;-76
2022/10/16 05:51:06;;;;;;;6.22;2.10;;;12.50;99.90;;;;;;5113905;27;20059;-77
2022/10/16 05:53:34;;;;;;;5.22;1.70;;;12.50;99.90;;;;;;5132539;27;20047;-77
2022/10/16 05:56:00;;;;;;;7.18;1.90;;;12.50;99.90;;;;;;5132990;27;20051;-76
2022/10/16 05:58:30;;;;;;;5.68;1.85;;;12.40;99.90;;;;;;5114366;27;20130;-78
2022/10/16 06:00:58;;;;;;;7.95;2.45;;;12.40;99.90;;;;;;5134122;27;20043;-78
2022/10/16 06:03:24;;;;;;;8.43;1.77;;;12.50;99.90;;;;;;5131263;27;20054;-78
2022/10/16 06:05:51;;;;;;;7.20;1.98;;;12.40;99.90;;;;;;5132434;27;20055;-77
2022/10/16 06:08:18;;;;;;;6.80;1.95;;;12.40;99.90;;;;;;5131857;27;20410;-79
2022/10/16 06:10:45;;;;;;;9.45;2.63;;;12.40;99.90;;;;;;5114014;27;20058;-79
2022/10/16 06:13:11;;;;;;;10.20;2.35;;;12.40;99.90;;;;;;5096851;27;20046;-77
2022/10/16 06:15:38;;;;;;;11.70;2.60;;;12.40;99.90;;;;;;5132505;27;20099;-77
2022/10/16 06:18:05;;;;;;;9.93;2.50;;;12.40;99.90;;;;;;5131943;27;20542;-77
2022/10/16 06:20:31;;;;;;;6.40;2.08;;;12.40;99.90;;;;;;5113814;27;20099;-77
2022/10/16 06:22:57;;;;;;;11.85;2.17;;;12.40;99.90;;;;;;5116475;27;20131;-77
2022/10/16 06:25:23;;;;;;;7.53;2.08;;;12.40;99.90;;;;;;5132065;27;20055;-77
2022/10/16 06:27:49;;;;;;;5.18;2.05;;;12.40;99.90;;;;;;5131938;27;20051;-76
2022/10/16 06:30:15;;;;;;;8.15;2.40;;;12.40;99.90;;;;;;5131718;27;20043;-77
2022/10/16 06:32:40;;;;;;;9.18;1.92;;;12.40;99.90;;;;;;5131826;27;20043;-77
2022/10/16 06:35:06;;;;;;;8.10;2.53;;;12.40;99.90;;;;;;5113649;28;20043;-77
2022/10/16 06:37:32;;;;;;;11.45;2.10;;;12.40;99.90;;;;;;5132955;27;20538;-76
2022/10/16 06:39:59;;;;;;;8.80;3.13;;;12.40;99.90;;;;;;5134937;27;20043;-76
2022/10/16 06:42:26;;;;;;;9.95;2.22;;;12.40;99.90;;;;;;5131844;28;20043;-77
2022/10/16 06:44:52;;;;;;;6.35;2.25;;;12.50;99.90;;;;;;5131887;28;20122;-77
2022/10/16 06:47:17;;;;;;;10.60;2.30;;;12.50;99.90;;;;;;5130338;28;20142;-79
2022/10/16 06:49:43;;;;;;;6.55;2.78;;;12.50;99.90;;;;;;5132458;28;20069;-78
2022/10/16 06:52:09;;;;;;;9.65;1.90;;;12.50;99.90;;;;;;5132287;28;20062;-78
2022/10/16 06:54:35;;;;;;;7.72;1.98;;;12.60;99.90;;;;;;5132421;28;20055;-78
2022/10/16 06:57:01;;;;;;;9.57;2.67;;;12.60;99.90;;;;;;5115830;28;20086;-77
2022/10/16 06:59:27;;;;;;;9.25;2.25;;;12.60;99.90;;;;;;5096469;28;20161;-78
2022/10/16 07:01:53;;;;;;;8.70;2.05;;;12.60;99.90;;;;;;5134308;28;20047;-76
2022/10/16 07:04:19;;;;;;;9.32;2.20;;;12.60;99.90;;;;;;5115746;28;20126;-76
2022/10/16 07:06:45;;;;;;;7.82;1.88;;;12.60;99.90;;;;;;5113187;28;20499;-78
2022/10/16 07:09:12;;;;;;;6.93;2.30;;;12.60;99.90;;;;;;5112928;28;20047;-77
2022/10/16 07:11:39;;;;;;;7.22;1.60;;;12.70;99.90;;;;;;5131241;28;20664;-76
2022/10/16 07:14:12;;;;;;;10.38;1.98;;;12.70;99.90;;;;;;5131742;28;20047;-78
2022/10/16 07:16:38;;;;;;;9.02;1.80;;;12.80;99.90;;;;;;5131465;28;20051;-78
2022/10/16 07:19:04;;;;;;;10.85;3.55;;;12.80;99.90;;;;;;5131251;28;20394;-78
2022/10/16 07:21:35;;;;;;;8.80;1.92;;;12.90;99.90;;;;;;5136431;27;20055;-78
2022/10/16 07:24:01;;;;;;;7.53;1.92;;;13.00;99.90;;;;;;5135648;27;20043;-78
2022/10/16 07:26:30;;;;;;;6.65;1.60;;;13.10;99.90;;;;;;5135402;27;20054;-78
2022/10/16 07:28:57;;;;;;;8.40;2.38;;;13.20;99.90;;;;;;5116981;27;20062;-81
2022/10/16 07:31:23;;;;;;;6.90;1.60;;;13.20;99.90;;;;;;5134453;27;20058;-76
2022/10/16 07:33:49;;;;;;;7.32;2.22;;;13.20;99.90;;;;;;5116875;27;20051;-77
2022/10/16 07:36:18;;;;;;;6.90;1.77;;;13.20;99.90;;;;;;5135353;27;20054;-76
2022/10/16 07:38:44;;;;;;;8.88;1.77;;;13.20;99.90;;;;;;5138972;27;20134;-77
2022/10/16 07:41:15;;;;;;;7.35;1.75;;;13.20;99.90;;;;;;5134743;27;20055;-78
2022/10/16 07:43:46;;;;;;;11.98;2.10;;;13.20;99.90;;;;;;5099446;27;20129;-76
2022/10/16 07:46:12;;;;;;;7.88;2.30;;;13.30;99.90;;;;;;5099203;27;20043;-76
2022/10/16 07:48:37;;;;;;;10.90;1.75;;;13.30;99.90;;;;;;5135243;27;20043;-77
2022/10/16 07:51:05;;;;;;;6.32;2.00;;;13.30;99.90;;;;;;5116535;27;20047;-76
2022/10/16 07:53:33;;;;;;;9.40;1.92;;;13.40;99.90;;;;;;5136427;27;20074;-78
2022/10/16 07:56:05;;;;;;;8.00;2.03;;;13.40;99.90;;;;;;5133773;27;20039;-76
2022/10/16 07:58:32;;;;;;;6.90;1.95;;;13.40;99.90;;;;;;5133483;27;20051;-79
2022/10/16 08:01:02;;;;;;;7.25;2.25;;;13.50;99.90;;;;;;5116561;27;20051;-76
2022/10/16 08:03:28;;;;;;;8.98;2.10;;;13.50;99.90;;;;;;5134854;27;20075;-78
2022/10/16 08:05:56;;;;;;;11.48;2.63;;;13.60;99.90;;;;;;5134399;27;20531;-78
2022/10/16 08:08:22;;;;;;;9.45;1.90;;;13.60;99.90;;;;;;5098995;27;20482;-79
2022/10/16 08:10:48;;;;;;;10.75;3.03;;;13.70;99.90;;;;;;5134650;27;20047;-78
2022/10/16 08:13:14;;;;;;;7.57;2.60;;;13.60;99.90;;;;;;5098794;27;20039;-77
2022/10/16 08:15:41;;;;;;;7.20;2.40;;;13.60;99.90;;;;;;5134528;27;20051;-76
2022/10/16 08:18:07;;;;;;;7.85;2.47;;;13.60;99.90;;;;;;5136152;27;20062;-77
2022/10/16 08:20:33;;;;;;;6.45;2.38;;;13.60;99.90;;;;;;5117998;27;20055;-77
2022/10/16 08:23:02;;;;;;;8.65;2.80;;;13.60;99.90;;;;;;5134419;27;20122;-77
2022/10/16 08:25:29;;;;;;;7.63;2.85;;;13.70;99.90;;;;;;5134625;27;20043;-81
2022/10/16 08:27:55;;;;;;;9.32;2.70;;;13.70;99.90;;;;;;5115848;27;20051;-78
2022/10/16 08:30:22;;;;;;;8.32;2.42;;;13.80;99.90;;;;;;5115528;27;20130;-78
2022/10/16 08:32:48;;;;;;;8.38;2.28;;;13.90;99.90;;;;;;5133682;27;20375;-76
2022/10/16 08:35:16;;;;;;;9.80;2.45;;;13.90;99.90;;;;;;5135007;27;20051;-78
2022/10/16 08:37:43;;;;;;;9.77;2.25;;;14.00;99.90;;;;;;5134805;27;20081;-80
2022/10/16 08:40:23;;;;;;;6.65;2.33;;;14.10;99.90;;;;;;5115522;27;20122;-81
2022/10/16 08:43:10;;;;;;;10.02;1.80;;;14.00;99.90;;;;;;5115620;27;20094;-81
2022/10/16 08:45:57;;;;;;;10.18;2.05;;;14.10;99.90;;;;;;5134054;27;20125;-81
2022/10/16 08:48:45;;;;;;;8.43;1.52;;;14.10;99.90;;;;;;5134128;27;20051;-80
2022/10/16 08:51:27;;;;;;;11.07;2.10;;;14.20;99.90;;;;;;5113694;27;20054;-81
2022/10/16 08:54:15;;;;;;;6.47;1.90;;;14.30;99.90;;;;;;5134014;27;20055;-78
2022/10/16 08:56:40;;;;;;;8.60;2.00;;;14.50;99.90;;;;;;5133666;27;20051;-81
2022/10/16 08:59:10;;;;;;;7.53;1.85;;;14.60;99.90;;;;;;5115274;27;20055;-77
2022/10/16 09:01:43;;;;;;;11.93;2.45;;;14.80;99.90;;;;;;5133522;27;20107;-78
2022/10/16 09:04:47;;;;;;;7.13;1.75;;;14.90;99.90;;;;;;5115174;27;20138;-81
2022/10/16 09:07:25;;;;;;;14.73;2.83;;;14.90;99.90;;;;;;5118569;27;20418;-80
2022/10/16 09:10:22;;;;;;;6.70;2.00;;;14.90;99.90;;;;;;5114831;27;20851;-81
2022/10/16 09:13:00;;;;;;;7.80;1.92;;;14.90;99.90;;;;;;5118488;27;20047;-79
2022/10/16 09:15:34;;;;;;;11.15;3.63;;;14.90;99.90;;;;;;5115007;27;20059;-81
2022/10/16 09:18:29;;;;;;;8.35;2.00;;;14.90;99.90;;;;;;5133609;27;20058;-79
2022/10/16 09:20:55;;;;;;;11.15;2.20;;;14.90;99.90;;;;;;5132067;27;20077;-78
2022/10/16 09:23:33;;;;;;;9.23;2.90;;;14.90;99.90;;;;;;5114808;27;20055;-78
2022/10/16 09:25:59;;;;;;;9.38;1.92;;;15.00;99.90;;;;;;5099972;27;20047;-79
2022/10/16 09:28:26;;;;;;;14.52;2.95;;;15.00;99.90;;;;;;5114703;27;20051;-79
2022/10/16 09:30:52;;;;;;;11.30;2.40;;;15.00;99.90;;;;;;5114927;27;20449;-79
2022/10/16 09:33:27;;;;;;;13.80;2.85;;;15.10;99.90;;;;;;5114482;27;20086;-77
2022/10/16 09:35:56;;;;;;;11.05;2.58;;;15.10;99.90;;;;;;5115234;27;20063;-77
2022/10/16 09:38:42;;;;;;;19.85;3.28;;;15.30;99.90;;;;;;5136601;27;20070;-78
2022/10/16 09:41:22;;;;;;;10.77;2.28;;;15.40;99.90;;;;;;5132912;27;20062;-77
2022/10/16 09:44:00;;;;;;;14.85;3.25;;;15.50;99.90;;;;;;5131017;27;20777;-79
2022/10/16 09:46:32;;;;;;;13.07;2.30;;;15.50;99.90;;;;;;5113681;27;20062;-76
2022/10/16 09:49:00;;;;;;;14.82;2.72;;;15.60;99.90;;;;;;5114277;27;20096;-78
2022/10/16 09:51:35;;;;;;;11.80;2.50;;;15.70;99.90;;;;;;5114531;27;20047;-77
2022/10/16 09:54:01;;;;;;;11.70;2.42;;;15.80;99.90;;;;;;5134479;27;20047;-78
2022/10/16 09:56:32;;;;;;;13.25;2.78;;;15.90;99.90;;;;;;5114498;27;20058;-76
2022/10/16 09:59:00;;;;;;;14.10;2.65;;;15.90;99.90;;;;;;5132704;27;20086;-76
2022/10/16 10:01:37;;;;;;;10.95;2.35;;;15.90;99.90;;;;;;5113756;27;20051;-77
2022/10/16 10:04:04;;;;;;;14.82;2.47;;;15.90;99.90;;;;;;5096943;27;20123;-76
2022/10/16 10:06:38;;;;;;;29.25;4.20;;;16.00;99.90;;;;;;5132021;27;20050;-76
2022/10/16 10:09:05;;;;;;;10.55;2.38;;;16.10;99.90;;;;;;5136918;27;20138;-75
2022/10/16 10:11:54;;;;;;;11.50;2.70;;;16.30;99.90;;;;;;5114301;27;20039;-80
2022/10/16 10:14:25;;;;;;;16.63;2.55;;;16.40;99.90;;;;;;5133032;27;20054;-77
2022/10/16 10:16:53;;;;;;;13.50;2.20;;;16.40;99.90;;;;;;5132511;27;20104;-77
2022/10/16 10:19:23;;;;;;;17.75;3.90;;;16.40;99.90;;;;;;5113911;27;20134;-75
2022/10/16 10:21:51;;;;;;;13.57;2.60;;;16.60;99.90;;;;;;5113653;27;20054;-74
2022/10/16 10:24:19;;;;;;;15.25;2.45;;;16.80;99.90;;;;;;5113321;27;20086;-75
2022/10/16 10:26:56;;;;;;;13.30;2.60;;;16.60;99.90;;;;;;5114674;27;20054;-75
2022/10/16 10:29:58;;;;;;;11.48;2.58;;;16.60;99.90;;;;;;5135635;27;20051;-77
2022/10/16 10:32:33;;;;;;;8.63;1.80;;;16.70;99.90;;;;;;5113934;27;20478;-75
2022/10/16 10:35:18;;;;;;;17.98;3.60;;;16.40;99.90;;;;;;5113610;28;20058;-76
2022/10/16 10:38:06;;;;;;;18.48;3.47;;;16.10;99.90;;;;;;5132100;27;20074;-76
2022/10/16 10:40:52;;;;;;;17.67;3.28;;;15.70;99.90;;;;;;5113129;27;20051;-78
2022/10/16 10:43:18;;;;;;;12.25;3.33;;;15.60;99.90;;;;;;5131904;28;20130;-77
2022/10/16 10:45:47;;;;;;;28.52;3.50;;;15.70;99.90;;;;;;5132930;28;20150;-77
2022/10/16 10:48:19;;;;;;;16.63;3.13;;;15.90;99.90;;;;;;5137828;28;20058;-76
2022/10/16 10:50:51;;;;;;;12.73;2.90;;;16.10;99.90;;;;;;5113325;28;20051;-77
2022/10/16 10:53:20;;;;;;;17.80;4.03;;;16.30;99.90;;;;;;5132011;28;20126;-79
2022/10/16 10:56:06;;;;;;;15.68;3.25;;;16.50;99.90;;;;;;5134568;27;20055;-78
2022/10/16 10:58:40;;;;;;;17.25;2.97;;;16.50;99.90;;;;;;5127301;27;20043;-81
2022/10/16 11:01:13;;;;;;;15.27;2.40;;;16.50;99.90;;;;;;5118201;27;20685;-79
2022/10/16 11:03:58;;;;;;;17.65;3.30;;;16.80;99.90;;;;;;5137731;27;20061;-77
2022/10/16 11:06:29;;;;;;;12.87;2.13;;;16.90;99.90;;;;;;5135499;27;20100;-79
2022/10/16 11:08:58;;;;;;;18.70;3.03;;;17.30;99.90;;;;;;5135852;27;20280;-77
2022/10/16 11:11:46;;;;;;;12.85;3.30;;;17.80;99.90;;;;;;5117494;27;20051;-79
2022/10/16 11:14:32;;;;;;;14.35;3.05;;;18.10;99.90;;;;;;5136851;27;20483;-76
2022/10/16 11:17:14;;;;;;;15.63;2.90;;;18.50;99.90;;;;;;5106377;27;20081;-78
2022/10/16 11:19:47;;;;;;;13.45;2.58;;;18.60;99.90;;;;;;5122657;27;20059;-79
2022/10/16 11:22:37;;;;;;;23.27;4.03;;;18.30;99.90;;;;;;5137412;27;20043;-76
2022/10/16 11:25:28;;;;;;;13.73;2.25;;;18.50;99.90;;;;;;5118293;27;20093;-76
2022/10/16 11:28:05;;;;;;;14.68;2.45;;;18.00;99.90;;;;;;5136720;27;20070;-77
2022/10/16 11:30:45;;;;;;;16.38;2.78;;;18.00;99.90;;;;;;5100864;27;20062;-76
2022/10/16 11:33:27;;;;;;;17.30;3.22;;;17.40;99.90;;;;;;5116736;27;20130;-76
2022/10/16 11:36:20;;;;;;;13.73;2.95;;;17.50;99.90;;;;;;5117625;27;20062;-77
2022/10/16 11:38:54;;;;;;;11.32;2.20;;;17.20;99.90;;;;;;5129881;27;20071;-78
2022/10/16 11:41:35;;;;;;;13.00;2.05;;;17.70;99.90;;;;;;5116694;27;20051;-77
2022/10/16 11:44:07;;;;;;;16.88;3.38;;;17.70;99.90;;;;;;5116902;27;20737;-77
2022/10/16 11:46:36;;;;;;;11.55;2.80;;;18.50;99.90;;;;;;5135273;27;20055;-78
2022/10/16 11:49:18;;;;;;;9.90;2.30;;;19.20;99.50;;;;;;5135316;27;20051;-77
2022/10/16 11:52:06;;;;;;;18.35;3.05;;;19.90;97.30;;;;;;5118019;27;20104;-74
2022/10/16 11:54:59;;;;;;;12.05;2.00;;;20.40;95.90;;;;;;5134864;27;20086;-79
2022/10/16 11:57:29;;;;;;;14.70;2.40;;;21.00;95.50;;;;;;5116231;27;20054;-80
2022/10/16 11:59:57;;;;;;;18.45;2.92;;;21.00;94.70;;;;;;5135089;27;20104;-78
2022/10/16 12:02:38;;;;;;;12.13;3.40;;;21.30;94.60;;;;;;5116486;27;20141;-76
2022/10/16 12:05:31;;;;;;;15.07;2.75;;;20.50;94.00;;;;;;5135304;27;20414;-77
2022/10/16 12:08:10;;;;;;;13.73;2.38;;;20.70;94.80;;;;;;5137259;27;20059;-75
2022/10/16 12:10:37;;;;;;;13.50;2.30;;;21.10;94.30;;;;;;5122811;27;20051;-77
2022/10/16 12:13:38;;;;;;;9.02;2.10;;;21.40;94.50;;;;;;5135727;27;20051;-77
2022/10/16 12:16:11;;;;;;;18.73;2.00;;;21.80;93.50;;;;;;5115990;27;20413;-76
2022/10/16 12:18:38;;;;;;;7.72;2.05;;;22.10;93.30;;;;;;5134449;27;20127;-78
2022/10/16 12:21:06;;;;;;;7.93;2.05;;;21.80;92.10;;;;;;5115816;27;20502;-76
2022/10/16 12:23:36;;;;;;;10.65;1.95;;;21.80;92.80;;;;;;5134451;27;20118;-77
2022/10/16 12:26:03;;;;;;;10.00;2.47;;;21.90;93.20;;;;;;5099250;27;20043;-77
2022/10/16 12:28:33;;;;;;;13.77;2.60;;;22.10;92.50;;;;;;5115912;27;20104;-77
2022/10/16 12:31:06;;;;;;;12.68;2.38;;;22.60;93.00;;;;;;5115927;27;20059;-77
2022/10/16 12:33:41;;;;;;;10.07;2.42;;;22.80;91.10;;;;;;5134332;27;20490;-77
2022/10/16 12:36:31;;;;;;;17.80;2.40;;;22.90;91.20;;;;;;5098717;27;20051;-78
2022/10/16 12:38:57;;;;;;;12.55;2.30;;;22.50;90.60;;;;;;5116005;27;20055;-77
2022/10/16 12:41:32;;;;;;;9.35;2.55;;;22.20;91.70;;;;;;5134012;27;20058;-75
2022/10/16 12:44:01;;;;;;;8.00;1.50;;;22.30;91.10;;;;;;5098916;27;20391;-77
2022/10/16 12:46:29;;;;;;;11.80;2.25;;;22.60;91.90;;;;;;5115806;27;20051;-77
2022/10/16 12:49:12;;;;;;;11.85;2.80;;;23.40;91.40;;;;;;5134268;27;20129;-76
2022/10/16 12:51:39;;;;;;;9.60;1.88;;;23.90;89.90;;;;;;5119874;27;20043;-77
2022/10/16 12:54:13;;;;;;;14.35;2.72;;;23.50;90.00;;;;;;5116943;27;20502;-78
2022/10/16 12:57:03;;;;;;;14.70;2.65;;;23.40;90.00;;;;;;5098435;27;20509;-76
2022/10/16 12:59:59;;;;;;;11.75;2.85;;;23.30;89.40;;;;;;5115419;27;20526;-77
2022/10/16 13:02:47;;;;;;;9.98;2.50;;;23.00;89.60;;;;;;5115524;27;20060;-79
2022/10/16 13:05:32;;;;;;;7.47;2.22;;;22.70;90.30;;;;;;5135296;27;20062;-77